createdAt,value
2022-11-24T00:00:20.696Z,5.68
2022-11-24T00:00:52.604Z,5.67
2022-11-24T00:01:29.531Z,5.70
2022-11-24T00:02:01.246Z,5.73
2022-11-24T00:02:32.919Z,5.70
2022-11-24T00:03:05.745Z,5.78
2022-11-24T00:03:37.819Z,5.80
2022-11-24T00:04:11.633Z,5.77
2022-11-24T00:04:43.136Z,5.81
2022-11-24T00:05:14.762Z,5.80
2022-11-24T00:05:46.297Z,5.73
2022-11-24T00:06:17.858Z,5.77
2022-11-24T00:06:49.375Z,5.75
2022-11-24T00:07:20.974Z,5.71
2022-11-24T00:07:52.618Z,5.73
2022-11-24T00:08:24.180Z,5.74
2022-11-24T00:08:56.753Z,5.74
2022-11-24T00:09:28.254Z,5.71
2022-11-24T00:09:59.749Z,5.75
2022-11-24T00:10:31.266Z,5.73
2022-11-24T00:11:12.059Z,5.73
2022-11-24T00:11:43.600Z,5.71
2022-11-24T00:12:15.109Z,5.70
2022-11-24T00:12:46.618Z,5.74
2022-11-24T00:13:18.129Z,5.73
2022-11-24T00:13:50.500Z,5.66
2022-11-24T00:14:22.125Z,5.68
2022-11-24T00:14:53.630Z,5.68
2022-11-24T00:15:25.286Z,5.68
2022-11-24T00:16:05.052Z,5.71
2022-11-24T00:16:38.098Z,5.67
2022-11-24T00:17:09.716Z,5.73
2022-11-24T00:17:41.275Z,5.83
2022-11-24T00:18:12.795Z,5.84
2022-11-24T00:18:47.562Z,5.70
2022-11-24T00:19:19.847Z,5.64
2022-11-24T00:19:51.599Z,5.71
2022-11-24T00:20:23.109Z,5.74
2022-11-24T00:20:54.659Z,5.68
2022-11-24T00:21:27.613Z,5.67
2022-11-24T00:21:59.193Z,5.59
2022-11-24T00:22:30.865Z,5.60
2022-11-24T00:23:02.404Z,5.61
2022-11-24T00:23:34.868Z,5.49
2022-11-24T00:24:06.894Z,5.56
2022-11-24T00:24:38.469Z,5.56
2022-11-24T00:25:10.055Z,5.63
2022-11-24T00:25:41.580Z,5.64
2022-11-24T00:26:15.930Z,5.67
2022-11-24T00:26:47.469Z,5.59
2022-11-24T00:27:19.059Z,5.64
2022-11-24T00:27:50.567Z,5.59
2022-11-24T00:28:22.075Z,5.59
2022-11-24T00:28:58.536Z,5.60
2022-11-24T00:29:30.033Z,5.59
2022-11-24T00:30:01.612Z,5.63
2022-11-24T00:30:34.068Z,5.64
2022-11-24T00:31:23.853Z,5.66
2022-11-24T00:31:56.550Z,5.67
2022-11-24T00:32:29.544Z,5.73
2022-11-24T00:33:01.071Z,5.70
2022-11-24T00:33:32.740Z,5.70
2022-11-24T00:34:07.403Z,5.70
2022-11-24T00:34:39.003Z,5.75
2022-11-24T00:35:10.583Z,5.74
2022-11-24T00:35:42.115Z,5.75
2022-11-24T00:36:14.490Z,5.81
2022-11-24T00:36:46.012Z,5.75
2022-11-24T00:37:17.521Z,5.68
2022-11-24T00:37:49.058Z,5.63
2022-11-24T00:38:20.590Z,5.64
2022-11-24T00:38:57.479Z,5.59
2022-11-24T00:39:29.013Z,5.60
2022-11-24T00:40:00.526Z,5.66
2022-11-24T00:40:34.953Z,5.63
2022-11-24T00:41:06.959Z,5.70
2022-11-24T00:41:38.911Z,5.61
2022-11-24T00:42:10.438Z,5.56
2022-11-24T00:42:41.979Z,5.54
2022-11-24T00:43:13.576Z,5.60
2022-11-24T00:43:45.097Z,5.59
2022-11-24T00:44:16.699Z,5.54
2022-11-24T00:44:48.196Z,5.57
2022-11-24T00:45:19.712Z,5.56
2022-11-24T00:45:51.395Z,5.60
2022-11-24T00:46:24.060Z,5.54
2022-11-24T00:46:55.726Z,5.56
2022-11-24T00:47:28.796Z,5.60
2022-11-24T00:48:00.322Z,5.56
2022-11-24T00:48:31.896Z,5.46
2022-11-24T00:49:03.683Z,5.51
2022-11-24T00:49:36.322Z,5.54
2022-11-24T00:50:08.225Z,5.56
2022-11-24T00:50:39.949Z,5.49
2022-11-24T00:51:13.420Z,5.42
2022-11-24T00:51:44.969Z,5.47
2022-11-24T00:52:16.562Z,5.44
2022-11-24T00:52:48.064Z,5.51
2022-11-24T00:53:19.591Z,5.44
2022-11-24T00:53:51.293Z,5.49
2022-11-24T00:54:23.069Z,5.51
2022-11-24T00:54:54.610Z,5.54
2022-11-24T00:55:26.213Z,5.53
2022-11-24T00:55:57.888Z,5.59
2022-11-24T00:56:29.815Z,5.50
2022-11-24T00:57:01.360Z,5.47
2022-11-24T00:57:35.130Z,5.49
2022-11-24T00:58:06.635Z,5.51
2022-11-24T00:58:38.488Z,5.50
2022-11-24T00:59:10.098Z,5.50
2022-11-24T00:59:41.618Z,5.57
2022-11-24T01:00:14.024Z,5.44
2022-11-24T01:00:45.544Z,5.40
2022-11-24T01:01:19.968Z,5.46
2022-11-24T01:01:51.660Z,5.38
2022-11-24T01:02:23.262Z,5.36
2022-11-24T01:02:54.841Z,5.40
2022-11-24T01:03:26.449Z,5.42
2022-11-24T01:04:01.352Z,5.47
2022-11-24T01:04:33.088Z,5.51
2022-11-24T01:05:05.276Z,5.56
2022-11-24T01:05:37.558Z,5.60
2022-11-24T01:06:14.617Z,5.63
2022-11-24T01:06:46.128Z,5.66
2022-11-24T01:07:17.739Z,5.63
2022-11-24T01:07:49.410Z,5.51
2022-11-24T01:08:20.994Z,5.50
2022-11-24T01:08:52.677Z,5.60
2022-11-24T01:09:24.296Z,5.49
2022-11-24T01:09:55.838Z,5.49
2022-11-24T01:10:27.397Z,5.51
2022-11-24T01:11:17.041Z,5.53
2022-11-24T01:12:04.212Z,5.57
2022-11-24T01:12:35.890Z,5.47
2022-11-24T01:13:07.479Z,5.54
2022-11-24T01:13:39.797Z,5.51
2022-11-24T01:14:11.310Z,5.51
2022-11-24T01:14:42.900Z,5.49
2022-11-24T01:15:14.469Z,5.53
2022-11-24T01:15:46.106Z,5.57
2022-11-24T01:16:29.540Z,5.57
2022-11-24T01:17:01.111Z,5.53
2022-11-24T01:17:32.636Z,5.51
2022-11-24T01:18:04.629Z,5.47
2022-11-24T01:18:36.161Z,5.47
2022-11-24T01:19:07.710Z,5.53
2022-11-24T01:19:39.221Z,5.49
2022-11-24T01:20:11.416Z,5.50
2022-11-24T01:20:42.945Z,5.43
2022-11-24T01:21:15.448Z,5.43
2022-11-24T01:21:47.268Z,5.42
2022-11-24T01:22:18.952Z,5.42
2022-11-24T01:22:50.504Z,5.42
2022-11-24T01:23:22.034Z,5.36
2022-11-24T01:23:53.549Z,5.40
2022-11-24T01:24:25.233Z,5.46
2022-11-24T01:24:56.745Z,5.47
2022-11-24T01:25:28.270Z,5.47
2022-11-24T01:25:59.835Z,5.50
2022-11-24T01:26:31.410Z,5.53
2022-11-24T01:27:02.963Z,5.54
2022-11-24T01:27:34.486Z,5.51
2022-11-24T01:28:05.987Z,5.44
2022-11-24T01:28:40.652Z,5.40
2022-11-24T01:29:16.585Z,5.49
2022-11-24T01:29:48.114Z,5.44
2022-11-24T01:30:19.912Z,5.49
2022-11-24T01:31:01.984Z,5.50
2022-11-24T01:31:33.582Z,5.50
2022-11-24T01:32:05.134Z,5.44
2022-11-24T01:32:37.342Z,5.44
2022-11-24T01:33:08.865Z,5.49
2022-11-24T01:33:40.420Z,5.46
2022-11-24T01:34:13.328Z,5.46
2022-11-24T01:34:44.846Z,5.51
2022-11-24T01:35:16.433Z,5.57
2022-11-24T01:35:47.949Z,5.50
2022-11-24T01:36:19.964Z,5.43
2022-11-24T01:36:51.481Z,5.51
2022-11-24T01:37:22.976Z,5.56
2022-11-24T01:37:54.500Z,5.50
2022-11-24T01:38:27.041Z,5.53
2022-11-24T01:38:58.554Z,5.51
2022-11-24T01:39:30.128Z,5.54
2022-11-24T01:40:01.700Z,5.46
2022-11-24T01:40:33.211Z,5.49
2022-11-24T01:41:08.772Z,5.57
2022-11-24T01:41:40.352Z,5.53
2022-11-24T01:42:11.916Z,5.50
2022-11-24T01:42:48.119Z,5.49
2022-11-24T01:43:21.535Z,5.51
2022-11-24T01:43:55.220Z,5.44
2022-11-24T01:44:29.202Z,5.39
2022-11-24T01:45:31.924Z,5.43
2022-11-24T01:46:28.388Z,5.38
2022-11-24T01:47:08.038Z,5.44
2022-11-24T01:47:43.636Z,5.39
2022-11-24T01:48:27.467Z,5.38
2022-11-24T01:49:08.868Z,5.39
2022-11-24T01:49:50.642Z,5.38
2022-11-24T01:50:22.913Z,5.38
2022-11-24T01:51:03.946Z,5.46
2022-11-24T01:51:46.460Z,5.50
2022-11-24T01:52:26.980Z,5.49
2022-11-24T01:52:58.587Z,5.51
2022-11-24T01:53:30.658Z,5.57
2022-11-24T01:54:07.858Z,5.49
2022-11-24T01:54:46.049Z,5.47
2022-11-24T01:55:25.637Z,5.47
2022-11-24T01:55:58.092Z,5.49
2022-11-24T01:56:30.894Z,5.47
2022-11-24T01:57:29.843Z,5.47
2022-11-24T01:58:18.528Z,5.53
2022-11-24T01:58:52.258Z,5.54
2022-11-24T01:59:25.375Z,5.60
2022-11-24T02:00:02.007Z,5.64
2022-11-24T02:01:13.801Z,5.60
2022-11-24T02:01:46.964Z,5.56
2022-11-24T02:02:19.584Z,5.59
2022-11-24T02:02:51.300Z,5.60
2022-11-24T02:03:28.169Z,5.59
2022-11-24T02:04:04.398Z,5.59
2022-11-24T02:04:37.076Z,5.50
2022-11-24T02:05:20.079Z,5.49
2022-11-24T02:06:04.905Z,5.51
2022-11-24T02:06:38.921Z,5.43
2022-11-24T02:07:12.617Z,5.47
2022-11-24T02:07:45.003Z,5.47
2022-11-24T02:08:43.928Z,5.47
2022-11-24T02:09:32.655Z,5.49
2022-11-24T02:10:10.797Z,5.46
2022-11-24T02:10:44.008Z,5.42
2022-11-24T02:11:15.649Z,5.38
2022-11-24T02:11:47.287Z,5.33
2022-11-24T02:12:18.874Z,5.36
2022-11-24T02:12:52.202Z,5.39
2022-11-24T02:13:24.971Z,5.42
2022-11-24T02:13:57.471Z,5.43
2022-11-24T02:14:29.187Z,5.42
2022-11-24T02:15:01.196Z,5.46
2022-11-24T02:15:34.470Z,5.35
2022-11-24T02:16:09.018Z,5.42
2022-11-24T02:16:42.802Z,5.42
2022-11-24T02:17:14.449Z,5.44
2022-11-24T02:17:46.027Z,5.38
2022-11-24T02:18:17.548Z,5.26
2022-11-24T02:18:49.147Z,5.22
2022-11-24T02:19:33.685Z,5.23
2022-11-24T02:20:08.566Z,5.29
2022-11-24T02:20:40.139Z,5.30
2022-11-24T02:21:14.713Z,5.29
2022-11-24T02:21:46.333Z,5.26
2022-11-24T02:22:25.936Z,5.30
2022-11-24T02:23:05.371Z,5.32
2022-11-24T02:24:00.560Z,5.35
2022-11-24T02:24:47.270Z,5.32
2022-11-24T02:25:56.107Z,5.19
2022-11-24T02:26:46.948Z,5.28
2022-11-24T02:27:19.340Z,5.30
2022-11-24T02:27:54.083Z,5.22
2022-11-24T02:28:29.671Z,5.26
2022-11-24T02:29:02.109Z,5.28
2022-11-24T02:29:33.914Z,5.35
2022-11-24T02:30:05.791Z,5.35
2022-11-24T02:30:37.549Z,5.26
2022-11-24T02:31:09.219Z,5.28
2022-11-24T02:31:51.249Z,5.25
2022-11-24T02:32:23.383Z,5.30
2022-11-24T02:32:55.053Z,5.29
2022-11-24T02:33:27.101Z,5.28
2022-11-24T02:33:58.739Z,5.30
2022-11-24T02:34:30.314Z,5.25
2022-11-24T02:35:05.075Z,5.29
2022-11-24T02:35:36.635Z,5.30
2022-11-24T02:36:08.237Z,5.33
2022-11-24T02:36:39.782Z,5.25
2022-11-24T02:37:11.372Z,5.16
2022-11-24T02:37:42.918Z,5.16
2022-11-24T02:38:14.490Z,5.19
2022-11-24T02:38:45.999Z,5.20
2022-11-24T02:39:17.608Z,5.16
2022-11-24T02:39:49.154Z,5.20
2022-11-24T02:40:25.636Z,5.20
2022-11-24T02:40:59.327Z,5.28
2022-11-24T02:41:31.073Z,5.18
2022-11-24T02:42:08.116Z,5.25
2022-11-24T02:42:44.348Z,5.23
2022-11-24T02:43:21.859Z,5.25
2022-11-24T02:43:56.535Z,5.22
2022-11-24T02:44:32.812Z,5.22
2022-11-24T02:45:05.047Z,5.26
2022-11-24T02:45:36.583Z,5.23
2022-11-24T02:46:09.304Z,5.20
2022-11-24T02:46:41.091Z,5.25
2022-11-24T02:47:13.611Z,5.22
2022-11-24T02:47:46.015Z,5.19
2022-11-24T02:48:17.641Z,5.20
2022-11-24T02:48:49.259Z,5.28
2022-11-24T02:49:20.782Z,5.30
2022-11-24T02:49:52.346Z,5.28
2022-11-24T02:50:24.010Z,5.26
2022-11-24T02:50:55.526Z,5.22
2022-11-24T02:51:27.989Z,5.19
2022-11-24T02:51:59.704Z,5.13
2022-11-24T02:52:31.539Z,5.11
2022-11-24T02:53:03.080Z,5.16
2022-11-24T02:53:34.789Z,5.15
2022-11-24T02:54:06.314Z,5.09
2022-11-24T02:54:37.846Z,5.13
2022-11-24T02:55:09.740Z,5.16
2022-11-24T02:55:41.315Z,5.18
2022-11-24T02:56:12.991Z,5.12
2022-11-24T02:56:44.499Z,5.13
2022-11-24T02:57:16.030Z,5.12
2022-11-24T02:57:47.547Z,5.08
2022-11-24T02:58:19.094Z,5.09
2022-11-24T02:58:50.593Z,5.12
2022-11-24T02:59:22.481Z,5.11
2022-11-24T02:59:54.016Z,5.02
2022-11-24T03:00:25.547Z,5.01
2022-11-24T03:00:57.979Z,5.01
2022-11-24T03:01:29.563Z,5.07
2022-11-24T03:02:01.217Z,5.02
2022-11-24T03:02:32.839Z,5.04
2022-11-24T03:03:04.558Z,5.02
2022-11-24T03:03:36.343Z,4.98
2022-11-24T03:04:07.965Z,4.98
2022-11-24T03:04:39.518Z,5.07
2022-11-24T03:05:12.084Z,5.05
2022-11-24T03:05:43.613Z,5.04
2022-11-24T03:06:15.148Z,5.09
2022-11-24T03:06:46.710Z,4.99
2022-11-24T03:07:18.401Z,4.91
2022-11-24T03:07:49.990Z,4.89
2022-11-24T03:08:21.618Z,4.91
2022-11-24T03:08:53.163Z,4.92
2022-11-24T03:09:24.677Z,4.96
2022-11-24T03:09:56.236Z,5.02
2022-11-24T03:10:28.496Z,4.99
2022-11-24T03:11:01.701Z,4.96
2022-11-24T03:11:33.236Z,5.02
2022-11-24T03:12:04.885Z,4.99
2022-11-24T03:12:36.483Z,4.96
2022-11-24T03:13:08.266Z,5.01
2022-11-24T03:13:39.779Z,4.96
2022-11-24T03:14:11.355Z,5.01
2022-11-24T03:14:42.864Z,5.04
2022-11-24T03:15:14.435Z,5.02
2022-11-24T03:15:46.137Z,4.98
2022-11-24T03:16:17.781Z,4.98
2022-11-24T03:16:49.361Z,4.95
2022-11-24T03:17:20.891Z,4.91
2022-11-24T03:17:56.743Z,4.89
2022-11-24T03:18:28.295Z,5.01
2022-11-24T03:19:00.469Z,4.98
2022-11-24T03:19:33.013Z,4.95
2022-11-24T03:20:05.471Z,4.95
2022-11-24T03:20:37.253Z,4.95
2022-11-24T03:21:09.135Z,4.93
2022-11-24T03:21:40.657Z,4.92
2022-11-24T03:22:14.761Z,4.91
2022-11-24T03:22:46.309Z,4.92
2022-11-24T03:23:17.866Z,4.91
2022-11-24T03:23:49.412Z,4.96
2022-11-24T03:24:21.127Z,4.92
2022-11-24T03:24:53.280Z,4.98
2022-11-24T03:25:24.802Z,5.02
2022-11-24T03:26:07.250Z,4.98
2022-11-24T03:26:38.775Z,4.95
2022-11-24T03:27:10.319Z,4.93
2022-11-24T03:27:41.913Z,4.95
2022-11-24T03:28:13.417Z,5.02
2022-11-24T03:28:45.207Z,5.01
2022-11-24T03:29:16.949Z,5.01
2022-11-24T03:29:48.477Z,5.02
2022-11-24T03:30:20.122Z,5.01
2022-11-24T03:30:51.707Z,5.01
2022-11-24T03:31:24.280Z,4.96
2022-11-24T03:31:55.865Z,4.95
2022-11-24T03:32:27.449Z,4.98
2022-11-24T03:32:59.007Z,5.02
2022-11-24T03:33:30.601Z,4.95
2022-11-24T03:34:02.231Z,4.93
2022-11-24T03:34:33.929Z,4.96
2022-11-24T03:35:06.117Z,5.02
2022-11-24T03:35:37.622Z,5.01
2022-11-24T03:36:09.635Z,4.98
2022-11-24T03:36:41.156Z,5.05
2022-11-24T03:37:12.692Z,5.08
2022-11-24T03:37:44.228Z,5.11
2022-11-24T03:38:15.724Z,5.11
2022-11-24T03:38:47.325Z,5.04
2022-11-24T03:39:18.833Z,5.02
2022-11-24T03:39:50.359Z,5.04
2022-11-24T03:40:21.868Z,5.02
2022-11-24T03:40:53.421Z,5.02
2022-11-24T03:41:24.926Z,5.02
2022-11-24T03:41:56.464Z,5.08
2022-11-24T03:42:28.208Z,4.98
2022-11-24T03:42:59.704Z,4.98
2022-11-24T03:43:32.021Z,5.02
2022-11-24T03:44:03.683Z,4.96
2022-11-24T03:44:35.440Z,5.04
2022-11-24T03:45:44.726Z,4.95
2022-11-24T03:45:59.116Z,4.93
2022-11-24T03:46:30.734Z,4.96
2022-11-24T03:47:02.376Z,4.98
2022-11-24T03:47:33.889Z,4.91
2022-11-24T03:48:06.364Z,4.96
2022-11-24T03:48:37.942Z,5.01
2022-11-24T03:49:09.994Z,4.96
2022-11-24T03:49:41.567Z,4.92
2022-11-24T03:50:13.076Z,4.95
2022-11-24T03:50:52.836Z,4.92
2022-11-24T03:51:24.378Z,4.85
2022-11-24T03:51:55.912Z,4.87
2022-11-24T03:52:27.474Z,4.81
2022-11-24T03:52:58.987Z,4.82
2022-11-24T03:53:32.124Z,4.78
2022-11-24T03:54:03.752Z,4.79
2022-11-24T03:54:35.712Z,4.72
2022-11-24T03:55:07.709Z,4.72
2022-11-24T03:55:39.231Z,4.68
2022-11-24T03:56:10.769Z,4.71
2022-11-24T03:56:42.773Z,4.68
2022-11-24T03:57:14.502Z,4.74
2022-11-24T03:57:46.108Z,4.75
2022-11-24T03:58:17.855Z,4.79
2022-11-24T03:58:50.046Z,4.79
2022-11-24T03:59:21.774Z,4.81
2022-11-24T03:59:53.285Z,4.87
2022-11-24T04:00:24.817Z,4.81
2022-11-24T04:00:57.115Z,4.79
2022-11-24T04:01:28.704Z,4.78
2022-11-24T04:02:00.387Z,4.79
2022-11-24T04:02:31.993Z,4.78
2022-11-24T04:03:03.716Z,4.81
2022-11-24T04:03:35.279Z,4.78
2022-11-24T04:04:06.820Z,4.84
2022-11-24T04:04:38.330Z,4.78
2022-11-24T04:05:10.314Z,4.78
2022-11-24T04:05:41.843Z,4.82
2022-11-24T04:06:13.362Z,4.78
2022-11-24T04:06:44.889Z,4.78
2022-11-24T04:07:17.139Z,4.77
2022-11-24T04:07:48.757Z,4.74
2022-11-24T04:08:20.684Z,4.77
2022-11-24T04:08:52.331Z,4.79
2022-11-24T04:09:23.882Z,4.71
2022-11-24T04:09:55.373Z,4.77
2022-11-24T04:10:26.949Z,4.81
2022-11-24T04:10:59.122Z,4.70
2022-11-24T04:11:49.172Z,4.74
2022-11-24T04:12:38.832Z,4.75
2022-11-24T04:13:13.464Z,4.78
2022-11-24T04:13:47.420Z,4.70
2022-11-24T04:14:19.458Z,4.72
2022-11-24T04:14:51.205Z,4.70
2022-11-24T04:15:22.744Z,4.72
2022-11-24T04:15:54.629Z,4.70
2022-11-24T04:16:26.431Z,4.64
2022-11-24T04:16:58.109Z,4.65
2022-11-24T04:17:29.641Z,4.67
2022-11-24T04:18:01.176Z,4.68
2022-11-24T04:18:32.729Z,4.74
2022-11-24T04:19:04.404Z,4.78
2022-11-24T04:19:35.910Z,4.78
2022-11-24T04:20:08.471Z,4.75
2022-11-24T04:20:41.044Z,4.77
2022-11-24T04:21:12.569Z,4.79
2022-11-24T04:21:44.085Z,4.81
2022-11-24T04:22:15.600Z,4.77
2022-11-24T04:22:47.170Z,4.79
2022-11-24T04:23:19.264Z,4.77
2022-11-24T04:23:50.793Z,4.79
2022-11-24T04:24:22.372Z,4.74
2022-11-24T04:24:53.933Z,4.75
2022-11-24T04:25:25.493Z,4.71
2022-11-24T04:25:56.997Z,4.68
2022-11-24T04:26:28.553Z,4.77
2022-11-24T04:27:00.081Z,4.77
2022-11-24T04:27:35.006Z,4.72
2022-11-24T04:28:06.587Z,4.71
2022-11-24T04:28:38.537Z,4.74
2022-11-24T04:29:10.153Z,4.78
2022-11-24T04:29:41.755Z,4.74
2022-11-24T04:30:13.325Z,4.67
2022-11-24T04:30:45.257Z,4.67
2022-11-24T04:31:17.062Z,4.71
2022-11-24T04:31:48.633Z,4.71
2022-11-24T04:32:20.545Z,4.72
2022-11-24T04:32:52.184Z,4.74
2022-11-24T04:33:23.926Z,4.72
2022-11-24T04:33:55.417Z,4.75
2022-11-24T04:34:26.965Z,4.74
2022-11-24T04:34:58.500Z,4.78
2022-11-24T04:35:30.268Z,4.75
2022-11-24T04:36:01.801Z,4.74
2022-11-24T04:36:33.346Z,4.71
2022-11-24T04:37:05.290Z,4.77
2022-11-24T04:37:36.915Z,4.78
2022-11-24T04:38:08.637Z,4.74
2022-11-24T04:39:23.289Z,4.75
2022-11-24T04:39:31.670Z,4.78
2022-11-24T04:40:04.973Z,4.75
2022-11-24T04:40:37.349Z,4.78
2022-11-24T04:41:09.261Z,4.77
2022-11-24T04:41:40.768Z,4.78
2022-11-24T04:42:13.174Z,4.74
2022-11-24T04:42:51.742Z,4.79
2022-11-24T04:43:23.275Z,4.81
2022-11-24T04:43:54.827Z,4.84
2022-11-24T04:44:26.923Z,4.79
2022-11-24T04:44:58.426Z,4.82
2022-11-24T04:45:29.968Z,4.82
2022-11-24T04:46:01.995Z,4.85
2022-11-24T04:46:33.593Z,4.91
2022-11-24T04:47:05.420Z,4.92
2022-11-24T04:47:37.067Z,4.87
2022-11-24T04:48:08.581Z,4.85
2022-11-24T04:48:40.080Z,4.89
2022-11-24T04:49:11.801Z,4.91
2022-11-24T04:49:43.389Z,4.89
2022-11-24T04:50:15.007Z,4.98
2022-11-24T04:50:46.551Z,4.85
2022-11-24T04:51:18.066Z,4.82
2022-11-24T04:51:49.790Z,4.88
2022-11-24T04:52:22.954Z,4.92
2022-11-24T04:52:54.463Z,4.98
2022-11-24T04:53:25.984Z,4.98
2022-11-24T04:53:57.496Z,4.99
2022-11-24T04:54:29.000Z,4.93
2022-11-24T04:55:00.556Z,4.92
2022-11-24T04:55:32.060Z,4.92
2022-11-24T04:56:07.093Z,4.88
2022-11-24T04:56:39.595Z,4.85
2022-11-24T04:57:23.128Z,4.84
2022-11-24T04:57:54.665Z,4.87
2022-11-24T04:58:26.163Z,4.92
2022-11-24T04:58:57.733Z,4.92
2022-11-24T04:59:29.317Z,4.93
2022-11-24T05:00:00.822Z,4.95
2022-11-24T05:00:32.334Z,4.93
2022-11-24T05:01:07.219Z,4.95
2022-11-24T05:01:38.795Z,4.99
2022-11-24T05:02:10.700Z,5.04
2022-11-24T05:02:42.434Z,5.01
2022-11-24T05:03:13.957Z,5.02
2022-11-24T05:03:45.533Z,4.99
2022-11-24T05:04:17.315Z,5.01
2022-11-24T05:04:49.061Z,4.99
2022-11-24T05:05:20.598Z,5.01
2022-11-24T05:05:52.108Z,5.02
2022-11-24T05:06:23.783Z,4.98
2022-11-24T05:06:55.286Z,5.05
2022-11-24T05:07:27.272Z,5.04
2022-11-24T05:07:59.900Z,5.07
2022-11-24T05:08:31.610Z,5.05
2022-11-24T05:09:03.663Z,5.05
2022-11-24T05:09:59.359Z,5.08
2022-11-24T05:10:37.267Z,5.11
2022-11-24T05:11:08.788Z,5.02
2022-11-24T05:11:42.793Z,5.05
2022-11-24T05:12:14.334Z,5.07
2022-11-24T05:12:51.071Z,5.08
2022-11-24T05:13:23.020Z,5.01
2022-11-24T05:13:54.577Z,5.02
2022-11-24T05:14:27.968Z,5.04
2022-11-24T05:15:03.800Z,5.01
2022-11-24T05:15:37.441Z,4.96
2022-11-24T05:16:09.425Z,4.99
2022-11-24T05:16:41.017Z,4.99
2022-11-24T05:17:12.586Z,4.98
2022-11-24T05:17:44.121Z,4.96
2022-11-24T05:18:16.671Z,4.98
2022-11-24T05:18:48.300Z,4.93
2022-11-24T05:19:20.112Z,4.96
2022-11-24T05:19:51.665Z,4.98
2022-11-24T05:20:23.498Z,5.01
2022-11-24T05:20:55.358Z,5.01
2022-11-24T05:21:27.948Z,4.96
2022-11-24T05:21:59.492Z,4.98
2022-11-24T05:22:31.822Z,4.92
2022-11-24T05:23:05.021Z,4.96
2022-11-24T05:23:36.607Z,4.95
2022-11-24T05:24:08.383Z,4.96
2022-11-24T05:24:39.987Z,4.95
2022-11-24T05:25:11.769Z,4.99
2022-11-24T05:25:47.478Z,4.98
2022-11-24T05:26:19.523Z,4.96
2022-11-24T05:26:51.138Z,4.93
2022-11-24T05:27:22.811Z,4.98
2022-11-24T05:27:54.389Z,4.96
2022-11-24T05:28:25.972Z,4.96
2022-11-24T05:28:57.510Z,4.95
2022-11-24T05:29:29.075Z,4.98
2022-11-24T05:30:00.683Z,4.95
2022-11-24T05:30:32.766Z,4.95
2022-11-24T05:31:05.024Z,4.98
2022-11-24T05:31:36.620Z,4.95
2022-11-24T05:32:08.223Z,4.92
2022-11-24T05:32:39.896Z,4.95
2022-11-24T05:33:19.081Z,4.99
2022-11-24T05:33:50.895Z,4.93
2022-11-24T05:34:22.481Z,4.96
2022-11-24T05:34:54.720Z,4.98
2022-11-24T05:35:26.335Z,4.99
2022-11-24T05:36:01.722Z,5.02
2022-11-24T05:36:51.821Z,5.01
2022-11-24T05:37:25.491Z,5.07
2022-11-24T05:37:58.658Z,5.08
2022-11-24T05:38:30.754Z,5.02
2022-11-24T05:39:02.300Z,5.02
2022-11-24T05:39:38.080Z,5.01
2022-11-24T05:40:09.859Z,5.01
2022-11-24T05:40:42.078Z,5.02
2022-11-24T05:41:13.623Z,5.01
2022-11-24T05:41:45.544Z,5.01
2022-11-24T05:42:35.679Z,5.02
2022-11-24T05:43:14.812Z,5.07
2022-11-24T05:43:46.359Z,5.04
2022-11-24T05:44:17.899Z,5.02
2022-11-24T05:44:49.551Z,5.01
2022-11-24T05:45:22.392Z,5.04
2022-11-24T05:45:53.959Z,4.99
2022-11-24T05:46:25.556Z,5.09
2022-11-24T05:46:57.223Z,5.04
2022-11-24T05:47:28.946Z,5.08
2022-11-24T05:48:08.882Z,5.05
2022-11-24T05:48:40.466Z,5.05
2022-11-24T05:49:12.058Z,5.07
2022-11-24T05:49:43.730Z,5.02
2022-11-24T05:50:18.019Z,5.08
2022-11-24T05:50:56.749Z,5.07
2022-11-24T05:51:28.342Z,5.01
2022-11-24T05:51:59.926Z,5.05
2022-11-24T05:52:31.539Z,5.08
2022-11-24T05:53:05.255Z,5.12
2022-11-24T05:53:36.878Z,5.15
2022-11-24T05:54:08.476Z,5.15
2022-11-24T05:54:40.088Z,5.16
2022-11-24T05:55:12.621Z,5.15
2022-11-24T05:55:44.222Z,5.12
2022-11-24T05:56:15.830Z,5.15
2022-11-24T05:56:47.378Z,5.13
2022-11-24T05:57:19.223Z,5.15
2022-11-24T05:57:58.349Z,5.12
2022-11-24T05:58:30.051Z,5.12
2022-11-24T05:59:06.657Z,5.12
2022-11-24T05:59:41.130Z,5.13
2022-11-24T06:00:13.938Z,5.13
2022-11-24T06:00:45.734Z,5.19
2022-11-24T06:01:17.262Z,5.22
2022-11-24T06:01:48.937Z,5.23
2022-11-24T06:02:20.767Z,5.23
2022-11-24T06:02:52.435Z,5.20
2022-11-24T06:03:24.169Z,5.20
2022-11-24T06:03:55.767Z,5.23
2022-11-24T06:04:27.389Z,5.23
2022-11-24T06:04:58.927Z,5.26
2022-11-24T06:05:30.590Z,5.22
2022-11-24T06:06:03.243Z,5.25
2022-11-24T06:06:34.826Z,5.22
2022-11-24T06:07:11.281Z,5.20
2022-11-24T06:07:42.882Z,5.23
2022-11-24T06:08:15.144Z,5.18
2022-11-24T06:08:46.683Z,5.19
2022-11-24T06:09:18.284Z,5.19
2022-11-24T06:09:49.908Z,5.19
2022-11-24T06:10:24.044Z,5.22
2022-11-24T06:11:17.188Z,5.23
2022-11-24T06:11:49.143Z,5.18
2022-11-24T06:12:20.771Z,5.22
2022-11-24T06:12:52.949Z,5.18
2022-11-24T06:13:24.615Z,5.25
2022-11-24T06:13:56.398Z,5.20
2022-11-24T06:14:28.199Z,5.20
2022-11-24T06:14:59.751Z,5.23
2022-11-24T06:15:31.282Z,5.19
2022-11-24T06:16:02.972Z,5.18
2022-11-24T06:16:34.605Z,5.25
2022-11-24T06:17:06.503Z,5.20
2022-11-24T06:17:38.629Z,5.18
2022-11-24T06:18:10.215Z,5.19
2022-11-24T06:18:41.818Z,5.19
2022-11-24T06:19:13.534Z,5.18
2022-11-24T06:19:47.938Z,5.22
2022-11-24T06:20:19.611Z,5.26
2022-11-24T06:21:09.501Z,5.29
2022-11-24T06:21:42.119Z,5.26
2022-11-24T06:22:13.693Z,5.29
2022-11-24T06:22:45.274Z,5.30
2022-11-24T06:23:16.868Z,5.32
2022-11-24T06:23:48.912Z,5.39
2022-11-24T06:24:20.711Z,5.38
2022-11-24T06:24:52.322Z,5.36
2022-11-24T06:25:23.910Z,5.36
2022-11-24T06:25:58.527Z,5.35
2022-11-24T06:26:30.063Z,5.32
2022-11-24T06:27:01.672Z,5.30
2022-11-24T06:27:33.264Z,5.33
2022-11-24T06:28:05.276Z,5.36
2022-11-24T06:28:36.929Z,5.33
2022-11-24T06:29:08.536Z,5.32
2022-11-24T06:29:40.242Z,5.26
2022-11-24T06:30:12.625Z,5.46
2022-11-24T06:30:44.154Z,5.36
2022-11-24T06:31:15.912Z,5.32
2022-11-24T06:31:47.560Z,5.28
2022-11-24T06:32:19.401Z,5.23
2022-11-24T06:32:54.991Z,5.20
2022-11-24T06:33:26.659Z,5.44
2022-11-24T06:33:59.246Z,5.28
2022-11-24T06:34:30.993Z,5.26
2022-11-24T06:35:02.843Z,5.35
2022-11-24T06:35:34.443Z,5.29
2022-11-24T06:36:08.639Z,5.28
2022-11-24T06:36:40.611Z,5.26
2022-11-24T06:37:12.207Z,5.38
2022-11-24T06:37:43.888Z,5.35
2022-11-24T06:38:20.110Z,5.30
2022-11-24T06:38:55.736Z,5.38
2022-11-24T06:39:27.495Z,5.67
2022-11-24T06:39:59.091Z,5.59
2022-11-24T06:40:30.659Z,5.74
2022-11-24T06:41:08.028Z,5.57
2022-11-24T06:41:39.623Z,6.11
2022-11-24T06:42:11.199Z,5.83
2022-11-24T06:42:42.744Z,5.67
2022-11-24T06:43:16.410Z,5.84
2022-11-24T06:43:48.083Z,5.87
2022-11-24T06:44:19.734Z,5.86
2022-11-24T06:44:51.379Z,5.75
2022-11-24T06:45:23.511Z,5.66
2022-11-24T06:45:55.782Z,5.51
2022-11-24T06:46:27.406Z,5.57
2022-11-24T06:46:58.991Z,5.50
2022-11-24T06:47:30.575Z,5.60
2022-11-24T06:48:02.222Z,5.71
2022-11-24T06:48:34.022Z,5.75
2022-11-24T06:49:05.636Z,5.97
2022-11-24T06:49:37.188Z,6.15
2022-11-24T06:50:10.612Z,5.90
2022-11-24T06:50:42.191Z,6.07
2022-11-24T06:51:13.892Z,5.91
2022-11-24T06:51:45.531Z,6.15
2022-11-24T06:52:17.080Z,5.90
2022-11-24T06:52:48.863Z,5.77
2022-11-24T06:53:20.423Z,5.71
2022-11-24T06:53:52.055Z,5.66
2022-11-24T06:54:23.771Z,5.61
2022-11-24T06:54:55.433Z,5.66
2022-11-24T06:55:27.136Z,5.63
2022-11-24T06:56:00.685Z,5.57
2022-11-24T06:56:32.223Z,5.67
2022-11-24T06:57:03.839Z,5.57
2022-11-24T06:57:35.439Z,5.50
2022-11-24T06:58:07.081Z,5.50
2022-11-24T06:58:46.612Z,5.51
2022-11-24T06:59:20.581Z,5.47
2022-11-24T06:59:52.178Z,5.43
2022-11-24T07:00:23.831Z,5.44
2022-11-24T07:00:55.502Z,5.47
2022-11-24T07:01:29.402Z,5.47
2022-11-24T07:02:00.984Z,5.44
2022-11-24T07:02:32.636Z,5.46
2022-11-24T07:03:05.288Z,5.46
2022-11-24T07:03:37.000Z,5.46
2022-11-24T07:04:08.848Z,5.57
2022-11-24T07:04:40.422Z,5.53
2022-11-24T07:05:12.006Z,5.80
2022-11-24T07:05:44.062Z,5.68
2022-11-24T07:06:17.356Z,5.61
2022-11-24T07:06:48.902Z,5.64
2022-11-24T07:07:20.623Z,5.64
2022-11-24T07:07:52.346Z,5.59
2022-11-24T07:08:24.366Z,5.60
2022-11-24T07:08:55.976Z,5.63
2022-11-24T07:09:27.562Z,5.87
2022-11-24T07:09:59.225Z,5.83
2022-11-24T07:10:30.776Z,5.88
2022-11-24T07:11:07.264Z,5.84
2022-11-24T07:11:39.968Z,5.84
2022-11-24T07:12:11.520Z,5.86
2022-11-24T07:12:43.114Z,5.93
2022-11-24T07:13:14.778Z,5.98
2022-11-24T07:13:47.341Z,5.95
2022-11-24T07:14:19.254Z,6.02
2022-11-24T07:14:50.846Z,5.94
2022-11-24T07:15:22.402Z,5.94
2022-11-24T07:15:53.942Z,5.97
2022-11-24T07:16:26.440Z,5.93
2022-11-24T07:16:58.109Z,5.88
2022-11-24T07:17:29.728Z,5.88
2022-11-24T07:18:01.330Z,5.81
2022-11-24T07:18:32.911Z,5.80
2022-11-24T07:19:04.492Z,5.86
2022-11-24T07:19:36.240Z,5.88
2022-11-24T07:20:09.163Z,5.90